sensor_id;sensor_type;location;lat;lon;timestamp;P1;durP1;ratioP1;P2;durP2;ratioP2
55497;SDS011;41357;52.806;18.268;2023-08-21T00:02:22;12.75;;;9.05;;
55497;SDS011;41357;52.806;18.268;2023-08-21T00:04:48;14.20;;;8.93;;
55497;SDS011;41357;52.806;18.268;2023-08-21T00:07:14;12.20;;;8.88;;
55497;SDS011;41357;52.806;18.268;2023-08-21T00:09:40;18.33;;;10.15;;
55497;SDS011;41357;52.806;18.268;2023-08-21T00:12:06;15.00;;;9.57;;
55497;SDS011;41357;52.806;18.268;2023-08-21T00:14:32;14.63;;;9.13;;
55497;SDS011;41357;52.806;18.268;2023-08-21T00:16:58;15.32;;;9.57;;
55497;SDS011;41357;52.806;18.268;2023-08-21T00:19:24;16.02;;;8.57;;
55497;SDS011;41357;52.806;18.268;2023-08-21T00:21:51;13.25;;;8.90;;
55497;SDS011;41357;52.806;18.268;2023-08-21T00:24:17;13.10;;;9.02;;
55497;SDS011;41357;52.806;18.268;2023-08-21T00:26:43;19.05;;;9.68;;
55497;SDS011;41357;52.806;18.268;2023-08-21T00:29:09;16.88;;;9.77;;
55497;SDS011;41357;52.806;18.268;2023-08-21T00:31:35;16.08;;;9.35;;
55497;SDS011;41357;52.806;18.268;2023-08-21T00:34:01;12.05;;;8.20;;
55497;SDS011;41357;52.806;18.268;2023-08-21T00:36:28;17.83;;;10.02;;
55497;SDS011;41357;52.806;18.268;2023-08-21T00:38:55;14.65;;;9.63;;
55497;SDS011;41357;52.806;18.268;2023-08-21T00:41:21;25.52;;;9.07;;
55497;SDS011;41357;52.806;18.268;2023-08-21T00:43:47;14.02;;;9.05;;
55497;SDS011;41357;52.806;18.268;2023-08-21T00:46:13;12.85;;;8.35;;
55497;SDS011;41357;52.806;18.268;2023-08-21T00:48:40;15.98;;;10.20;;
55497;SDS011;41357;52.806;18.268;2023-08-21T00:51:06;19.65;;;9.40;;
55497;SDS011;41357;52.806;18.268;2023-08-21T00:53:33;15.52;;;9.13;;
55497;SDS011;41357;52.806;18.268;2023-08-21T00:55:59;14.30;;;9.15;;
55497;SDS011;41357;52.806;18.268;2023-08-21T00:58:25;15.55;;;8.85;;
55497;SDS011;41357;52.806;18.268;2023-08-21T01:00:51;18.17;;;9.35;;
55497;SDS011;41357;52.806;18.268;2023-08-21T01:03:18;13.93;;;9.25;;
55497;SDS011;41357;52.806;18.268;2023-08-21T01:05:44;17.80;;;9.70;;
55497;SDS011;41357;52.806;18.268;2023-08-21T01:10:53;13.98;;;8.77;;
55497;SDS011;41357;52.806;18.268;2023-08-21T01:16:06;13.52;;;9.45;;
55497;SDS011;41357;52.806;18.268;2023-08-21T01:18:33;16.30;;;9.57;;
55497;SDS011;41357;52.806;18.268;2023-08-21T01:21:01;14.90;;;9.00;;
55497;SDS011;41357;52.806;18.268;2023-08-21T01:23:35;14.77;;;8.98;;
55497;SDS011;41357;52.806;18.268;2023-08-21T01:26:02;15.05;;;9.27;;
55497;SDS011;41357;52.806;18.268;2023-08-21T01:28:29;17.30;;;10.15;;
55497;SDS011;41357;52.806;18.268;2023-08-21T01:31:04;18.15;;;9.82;;
55497;SDS011;41357;52.806;18.268;2023-08-21T01:33:32;15.10;;;9.60;;
55497;SDS011;41357;52.806;18.268;2023-08-21T01:35:59;14.63;;;8.82;;
55497;SDS011;41357;52.806;18.268;2023-08-21T01:38:34;19.75;;;9.35;;
55497;SDS011;41357;52.806;18.268;2023-08-21T01:41:00;16.73;;;9.23;;
55497;SDS011;41357;52.806;18.268;2023-08-21T01:43:28;15.80;;;8.95;;
55497;SDS011;41357;52.806;18.268;2023-08-21T01:45:54;20.08;;;10.55;;
55497;SDS011;41357;52.806;18.268;2023-08-21T01:48:20;16.77;;;9.77;;
55497;SDS011;41357;52.806;18.268;2023-08-21T01:50:46;19.02;;;9.88;;
55497;SDS011;41357;52.806;18.268;2023-08-21T01:53:12;16.33;;;9.18;;
55497;SDS011;41357;52.806;18.268;2023-08-21T01:55:38;19.98;;;9.15;;
55497;SDS011;41357;52.806;18.268;2023-08-21T01:58:05;16.63;;;8.73;;
55497;SDS011;41357;52.806;18.268;2023-08-21T02:00:31;16.35;;;8.98;;
55497;SDS011;41357;52.806;18.268;2023-08-21T02:02:57;16.13;;;9.02;;
55497;SDS011;41357;52.806;18.268;2023-08-21T02:05:23;15.05;;;9.57;;
55497;SDS011;41357;52.806;18.268;2023-08-21T02:07:49;12.75;;;9.32;;
55497;SDS011;41357;52.806;18.268;2023-08-21T02:10:15;14.65;;;9.85;;
55497;SDS011;41357;52.806;18.268;2023-08-21T02:12:41;14.48;;;9.82;;
55497;SDS011;41357;52.806;18.268;2023-08-21T02:15:08;15.15;;;9.93;;
55497;SDS011;41357;52.806;18.268;2023-08-21T02:17:35;14.65;;;9.68;;
55497;SDS011;41357;52.806;18.268;2023-08-21T02:20:01;18.58;;;10.55;;
55497;SDS011;41357;52.806;18.268;2023-08-21T02:22:27;15.93;;;9.02;;
55497;SDS011;41357;52.806;18.268;2023-08-21T02:24:53;14.40;;;9.10;;
55497;SDS011;41357;52.806;18.268;2023-08-21T02:27:19;19.10;;;8.93;;
55497;SDS011;41357;52.806;18.268;2023-08-21T02:29:45;16.23;;;8.25;;
55497;SDS011;41357;52.806;18.268;2023-08-21T02:32:11;12.70;;;7.32;;
55497;SDS011;41357;52.806;18.268;2023-08-21T02:34:38;10.52;;;7.35;;
55497;SDS011;41357;52.806;18.268;2023-08-21T02:37:04;10.68;;;6.97;;
55497;SDS011;41357;52.806;18.268;2023-08-21T02:39:30;18.73;;;7.57;;
55497;SDS011;41357;52.806;18.268;2023-08-21T02:41:56;17.17;;;8.85;;
55497;SDS011;41357;52.806;18.268;2023-08-21T02:44:22;15.63;;;7.78;;
55497;SDS011;41357;52.806;18.268;2023-08-21T02:46:49;13.85;;;8.05;;
55497;SDS011;41357;52.806;18.268;2023-08-21T02:49:15;15.50;;;8.07;;
55497;SDS011;41357;52.806;18.268;2023-08-21T02:51:41;18.63;;;9.98;;
55497;SDS011;41357;52.806;18.268;2023-08-21T02:54:07;13.05;;;7.22;;
55497;SDS011;41357;52.806;18.268;2023-08-21T02:56:33;18.15;;;9.82;;
55497;SDS011;41357;52.806;18.268;2023-08-21T02:58:59;12.90;;;7.50;;
55497;SDS011;41357;52.806;18.268;2023-08-21T03:01:26;13.68;;;7.63;;
55497;SDS011;41357;52.806;18.268;2023-08-21T03:03:52;10.77;;;7.32;;
55497;SDS011;41357;52.806;18.268;2023-08-21T03:06:18;11.50;;;7.75;;
55497;SDS011;41357;52.806;18.268;2023-08-21T03:08:45;16.45;;;7.20;;
55497;SDS011;41357;52.806;18.268;2023-08-21T03:11:11;14.07;;;7.55;;
55497;SDS011;41357;52.806;18.268;2023-08-21T03:13:38;12.90;;;7.28;;
55497;SDS011;41357;52.806;18.268;2023-08-21T03:16:04;13.27;;;7.32;;
55497;SDS011;41357;52.806;18.268;2023-08-21T03:18:31;10.70;;;7.03;;
55497;SDS011;41357;52.806;18.268;2023-08-21T03:20:57;18.13;;;7.97;;
55497;SDS011;41357;52.806;18.268;2023-08-21T03:23:23;17.58;;;7.97;;
55497;SDS011;41357;52.806;18.268;2023-08-21T03:25:52;11.98;;;7.18;;
55497;SDS011;41357;52.806;18.268;2023-08-21T03:28:18;16.50;;;7.63;;
55497;SDS011;41357;52.806;18.268;2023-08-21T03:30:44;12.93;;;7.88;;
55497;SDS011;41357;52.806;18.268;2023-08-21T03:33:10;16.80;;;7.45;;
55497;SDS011;41357;52.806;18.268;2023-08-21T03:35:37;14.43;;;8.07;;
55497;SDS011;41357;52.806;18.268;2023-08-21T03:38:03;19.08;;;9.00;;
55497;SDS011;41357;52.806;18.268;2023-08-21T03:40:29;14.93;;;9.02;;
55497;SDS011;41357;52.806;18.268;2023-08-21T03:42:55;13.90;;;7.78;;
55497;SDS011;41357;52.806;18.268;2023-08-21T03:45:22;12.63;;;7.65;;
55497;SDS011;41357;52.806;18.268;2023-08-21T03:47:48;11.02;;;7.07;;
55497;SDS011;41357;52.806;18.268;2023-08-21T03:50:14;12.32;;;7.00;;
55497;SDS011;41357;52.806;18.268;2023-08-21T03:52:40;16.10;;;7.88;;
55497;SDS011;41357;52.806;18.268;2023-08-21T03:55:06;12.55;;;7.97;;
55497;SDS011;41357;52.806;18.268;2023-08-21T03:57:32;13.82;;;7.25;;
55497;SDS011;41357;52.806;18.268;2023-08-21T03:59:58;12.57;;;7.30;;
55497;SDS011;41357;52.806;18.268;2023-08-21T04:02:24;11.88;;;7.57;;
55497;SDS011;41357;52.806;18.268;2023-08-21T04:04:51;11.15;;;7.47;;
55497;SDS011;41357;52.806;18.268;2023-08-21T04:07:17;11.52;;;6.85;;
55497;SDS011;41357;52.806;18.268;2023-08-21T04:09:43;10.68;;;7.03;;
55497;SDS011;41357;52.806;18.268;2023-08-21T04:12:09;12.32;;;6.88;;
55497;SDS011;41357;52.806;18.268;2023-08-21T04:14:35;13.85;;;7.47;;
55497;SDS011;41357;52.806;18.268;2023-08-21T04:17:01;11.77;;;6.25;;
55497;SDS011;41357;52.806;18.268;2023-08-21T04:19:28;9.10;;;6.15;;
55497;SDS011;41357;52.806;18.268;2023-08-21T04:21:57;13.57;;;6.43;;
55497;SDS011;41357;52.806;18.268;2023-08-21T04:24:24;16.48;;;6.60;;
55497;SDS011;41357;52.806;18.268;2023-08-21T04:26:50;12.57;;;6.03;;
55497;SDS011;41357;52.806;18.268;2023-08-21T04:29:16;13.65;;;6.57;;
55497;SDS011;41357;52.806;18.268;2023-08-21T04:31:42;9.80;;;5.55;;
55497;SDS011;41357;52.806;18.268;2023-08-21T04:34:08;19.73;;;6.63;;
55497;SDS011;41357;52.806;18.268;2023-08-21T04:36:34;11.05;;;5.72;;
55497;SDS011;41357;52.806;18.268;2023-08-21T04:39:00;13.05;;;6.57;;
55497;SDS011;41357;52.806;18.268;2023-08-21T04:41:26;12.80;;;5.80;;
55497;SDS011;41357;52.806;18.268;2023-08-21T04:43:52;11.77;;;5.97;;
55497;SDS011;41357;52.806;18.268;2023-08-21T04:46:19;10.63;;;5.28;;
55497;SDS011;41357;52.806;18.268;2023-08-21T04:48:45;12.65;;;5.90;;
55497;SDS011;41357;52.806;18.268;2023-08-21T04:51:11;9.80;;;6.10;;
55497;SDS011;41357;52.806;18.268;2023-08-21T04:53:38;10.75;;;5.60;;
55497;SDS011;41357;52.806;18.268;2023-08-21T04:56:04;11.25;;;6.07;;
55497;SDS011;41357;52.806;18.268;2023-08-21T04:58:30;10.50;;;6.28;;
55497;SDS011;41357;52.806;18.268;2023-08-21T05:00:56;20.90;;;8.50;;
55497;SDS011;41357;52.806;18.268;2023-08-21T05:03:23;10.35;;;5.25;;
55497;SDS011;41357;52.806;18.268;2023-08-21T05:05:52;12.18;;;5.70;;
55497;SDS011;41357;52.806;18.268;2023-08-21T05:08:19;13.47;;;6.37;;
55497;SDS011;41357;52.806;18.268;2023-08-21T05:10:45;13.75;;;5.88;;
55497;SDS011;41357;52.806;18.268;2023-08-21T05:13:12;7.90;;;5.05;;
55497;SDS011;41357;52.806;18.268;2023-08-21T05:15:42;11.73;;;5.63;;
55497;SDS011;41357;52.806;18.268;2023-08-21T05:18:08;9.65;;;5.50;;
55497;SDS011;41357;52.806;18.268;2023-08-21T05:20:34;10.98;;;5.47;;
55497;SDS011;41357;52.806;18.268;2023-08-21T05:23:00;10.20;;;5.40;;
55497;SDS011;41357;52.806;18.268;2023-08-21T05:25:26;9.27;;;4.82;;
55497;SDS011;41357;52.806;18.268;2023-08-21T05:27:52;13.20;;;6.45;;
55497;SDS011;41357;52.806;18.268;2023-08-21T05:30:18;9.85;;;4.80;;
55497;SDS011;41357;52.806;18.268;2023-08-21T05:32:44;8.60;;;4.43;;
55497;SDS011;41357;52.806;18.268;2023-08-21T05:35:10;10.77;;;5.38;;
55497;SDS011;41357;52.806;18.268;2023-08-21T05:37:36;12.07;;;5.00;;
55497;SDS011;41357;52.806;18.268;2023-08-21T05:40:03;8.85;;;3.95;;
55497;SDS011;41357;52.806;18.268;2023-08-21T05:42:30;9.48;;;4.97;;
55497;SDS011;41357;52.806;18.268;2023-08-21T05:44:56;8.32;;;4.32;;
55497;SDS011;41357;52.806;18.268;2023-08-21T05:47:22;9.30;;;4.78;;
55497;SDS011;41357;52.806;18.268;2023-08-21T05:49:49;9.50;;;4.70;;
55497;SDS011;41357;52.806;18.268;2023-08-21T05:52:17;7.25;;;4.57;;
55497;SDS011;41357;52.806;18.268;2023-08-21T05:54:44;9.30;;;4.68;;
55497;SDS011;41357;52.806;18.268;2023-08-21T05:57:10;8.38;;;4.65;;
55497;SDS011;41357;52.806;18.268;2023-08-21T05:59:42;8.75;;;4.93;;
55497;SDS011;41357;52.806;18.268;2023-08-21T06:02:08;7.13;;;4.07;;
55497;SDS011;41357;52.806;18.268;2023-08-21T06:04:34;10.13;;;4.15;;
55497;SDS011;41357;52.806;18.268;2023-08-21T06:07:00;6.07;;;3.85;;
55497;SDS011;41357;52.806;18.268;2023-08-21T06:09:28;7.30;;;3.83;;
55497;SDS011;41357;52.806;18.268;2023-08-21T06:11:56;7.15;;;4.55;;
55497;SDS011;41357;52.806;18.268;2023-08-21T06:14:22;5.90;;;4.10;;
55497;SDS011;41357;52.806;18.268;2023-08-21T06:16:54;9.10;;;3.78;;
55497;SDS011;41357;52.806;18.268;2023-08-21T06:19:20;8.93;;;3.63;;
55497;SDS011;41357;52.806;18.268;2023-08-21T06:21:46;5.65;;;3.03;;
55497;SDS011;41357;52.806;18.268;2023-08-21T06:24:12;5.90;;;3.67;;
55497;SDS011;41357;52.806;18.268;2023-08-21T06:26:39;7.50;;;3.67;;
55497;SDS011;41357;52.806;18.268;2023-08-21T06:29:05;7.25;;;3.65;;
55497;SDS011;41357;52.806;18.268;2023-08-21T06:31:31;5.97;;;3.58;;
55497;SDS011;41357;52.806;18.268;2023-08-21T06:33:58;6.82;;;3.45;;
55497;SDS011;41357;52.806;18.268;2023-08-21T06:36:24;7.30;;;3.38;;
55497;SDS011;41357;52.806;18.268;2023-08-21T06:38:50;8.88;;;3.63;;
55497;SDS011;41357;52.806;18.268;2023-08-21T06:41:16;6.95;;;3.40;;
55497;SDS011;41357;52.806;18.268;2023-08-21T06:43:42;9.38;;;3.85;;
55497;SDS011;41357;52.806;18.268;2023-08-21T06:46:09;8.40;;;2.88;;
55497;SDS011;41357;52.806;18.268;2023-08-21T06:48:37;6.32;;;3.72;;
55497;SDS011;41357;52.806;18.268;2023-08-21T06:51:03;7.05;;;3.97;;
55497;SDS011;41357;52.806;18.268;2023-08-21T06:53:29;5.70;;;3.17;;
55497;SDS011;41357;52.806;18.268;2023-08-21T06:55:56;6.53;;;3.88;;
55497;SDS011;41357;52.806;18.268;2023-08-21T06:58:22;6.15;;;2.88;;
55497;SDS011;41357;52.806;18.268;2023-08-21T07:00:48;3.85;;;2.95;;
55497;SDS011;41357;52.806;18.268;2023-08-21T07:03:14;7.18;;;3.20;;
55497;SDS011;41357;52.806;18.268;2023-08-21T07:05:40;6.00;;;3.08;;
55497;SDS011;41357;52.806;18.268;2023-08-21T07:08:06;5.85;;;3.35;;
55497;SDS011;41357;52.806;18.268;2023-08-21T07:10:36;5.07;;;2.67;;
55497;SDS011;41357;52.806;18.268;2023-08-21T07:13:02;7.57;;;2.97;;
55497;SDS011;41357;52.806;18.268;2023-08-21T07:15:29;4.18;;;2.67;;
55497;SDS011;41357;52.806;18.268;2023-08-21T07:17:55;5.38;;;2.28;;
55497;SDS011;41357;52.806;18.268;2023-08-21T07:20:21;3.78;;;2.40;;
55497;SDS011;41357;52.806;18.268;2023-08-21T07:22:47;6.63;;;3.00;;
55497;SDS011;41357;52.806;18.268;2023-08-21T07:25:14;5.15;;;2.85;;
55497;SDS011;41357;52.806;18.268;2023-08-21T07:27:40;4.82;;;2.17;;
55497;SDS011;41357;52.806;18.268;2023-08-21T07:30:06;2.97;;;2.03;;
55497;SDS011;41357;52.806;18.268;2023-08-21T07:32:33;4.28;;;2.22;;
55497;SDS011;41357;52.806;18.268;2023-08-21T07:34:59;3.17;;;2.53;;
55497;SDS011;41357;52.806;18.268;2023-08-21T07:37:25;3.47;;;2.13;;
55497;SDS011;41357;52.806;18.268;2023-08-21T07:39:52;7.40;;;2.75;;
55497;SDS011;41357;52.806;18.268;2023-08-21T07:42:21;3.65;;;2.13;;
55497;SDS011;41357;52.806;18.268;2023-08-21T07:44:47;4.55;;;2.40;;
55497;SDS011;41357;52.806;18.268;2023-08-21T07:47:13;5.80;;;2.20;;
55497;SDS011;41357;52.806;18.268;2023-08-21T07:49:39;4.60;;;2.03;;
55497;SDS011;41357;52.806;18.268;2023-08-21T07:52:05;4.63;;;1.90;;
55497;SDS011;41357;52.806;18.268;2023-08-21T07:54:31;6.25;;;1.80;;
55497;SDS011;41357;52.806;18.268;2023-08-21T07:56:57;3.22;;;2.08;;
55497;SDS011;41357;52.806;18.268;2023-08-21T07:59:23;3.03;;;1.95;;
55497;SDS011;41357;52.806;18.268;2023-08-21T08:01:50;3.58;;;1.67;;
55497;SDS011;41357;52.806;18.268;2023-08-21T08:04:16;4.00;;;2.03;;
55497;SDS011;41357;52.806;18.268;2023-08-21T08:06:42;3.25;;;1.83;;
55497;SDS011;41357;52.806;18.268;2023-08-21T08:09:08;2.20;;;1.70;;
55497;SDS011;41357;52.806;18.268;2023-08-21T08:11:35;3.45;;;1.90;;
55497;SDS011;41357;52.806;18.268;2023-08-21T08:14:02;5.05;;;2.28;;
55497;SDS011;41357;52.806;18.268;2023-08-21T08:16:28;3.97;;;2.03;;
55497;SDS011;41357;52.806;18.268;2023-08-21T08:18:54;3.95;;;2.20;;
55497;SDS011;41357;52.806;18.268;2023-08-21T08:21:20;4.53;;;2.03;;
55497;SDS011;41357;52.806;18.268;2023-08-21T08:23:46;3.85;;;1.90;;
55497;SDS011;41357;52.806;18.268;2023-08-21T08:26:12;6.28;;;1.88;;
55497;SDS011;41357;52.806;18.268;2023-08-21T08:28:38;5.10;;;2.45;;
55497;SDS011;41357;52.806;18.268;2023-08-21T08:31:04;4.68;;;2.20;;
55497;SDS011;41357;52.806;18.268;2023-08-21T08:33:30;3.95;;;1.95;;
55497;SDS011;41357;52.806;18.268;2023-08-21T08:35:57;4.65;;;1.60;;
55497;SDS011;41357;52.806;18.268;2023-08-21T08:38:23;3.90;;;2.10;;
55497;SDS011;41357;52.806;18.268;2023-08-21T08:40:49;6.40;;;1.80;;
55497;SDS011;41357;52.806;18.268;2023-08-21T08:43:16;2.63;;;1.65;;
55497;SDS011;41357;52.806;18.268;2023-08-21T08:45:43;3.53;;;1.90;;
55497;SDS011;41357;52.806;18.268;2023-08-21T08:48:11;3.95;;;2.13;;
55497;SDS011;41357;52.806;18.268;2023-08-21T08:50:38;4.40;;;2.22;;
55497;SDS011;41357;52.806;18.268;2023-08-21T08:53:04;5.18;;;2.30;;
55497;SDS011;41357;52.806;18.268;2023-08-21T08:55:33;3.13;;;1.80;;
55497;SDS011;41357;52.806;18.268;2023-08-21T08:57:59;5.60;;;2.20;;
55497;SDS011;41357;52.806;18.268;2023-08-21T09:00:25;2.58;;;1.67;;
55497;SDS011;41357;52.806;18.268;2023-08-21T09:02:51;4.72;;;1.80;;
55497;SDS011;41357;52.806;18.268;2023-08-21T09:05:18;4.10;;;1.60;;
55497;SDS011;41357;52.806;18.268;2023-08-21T09:07:44;1.73;;;1.50;;
55497;SDS011;41357;52.806;18.268;2023-08-21T09:10:13;3.55;;;1.67;;
55497;SDS011;41357;52.806;18.268;2023-08-21T09:12:44;2.00;;;1.60;;
55497;SDS011;41357;52.806;18.268;2023-08-21T09:15:11;2.40;;;1.55;;
55497;SDS011;41357;52.806;18.268;2023-08-21T09:17:37;2.45;;;2.05;;
55497;SDS011;41357;52.806;18.268;2023-08-21T09:20:04;3.90;;;1.90;;
55497;SDS011;41357;52.806;18.268;2023-08-21T09:22:30;3.45;;;1.80;;
55497;SDS011;41357;52.806;18.268;2023-08-21T09:25:03;3.67;;;1.60;;
55497;SDS011;41357;52.806;18.268;2023-08-21T09:27:34;5.40;;;1.55;;
55497;SDS011;41357;52.806;18.268;2023-08-21T09:30:03;3.85;;;2.08;;
55497;SDS011;41357;52.806;18.268;2023-08-21T09:32:29;6.32;;;1.90;;
55497;SDS011;41357;52.806;18.268;2023-08-21T09:34:55;4.85;;;2.20;;
55497;SDS011;41357;52.806;18.268;2023-08-21T09:37:23;3.53;;;2.08;;
55497;SDS011;41357;52.806;18.268;2023-08-21T09:39:54;6.78;;;2.22;;
55497;SDS011;41357;52.806;18.268;2023-08-21T09:42:26;4.45;;;2.50;;
55497;SDS011;41357;52.806;18.268;2023-08-21T09:44:52;5.32;;;2.00;;
55497;SDS011;41357;52.806;18.268;2023-08-21T09:47:18;4.90;;;2.67;;
55497;SDS011;41357;52.806;18.268;2023-08-21T09:49:45;3.08;;;2.03;;
55497;SDS011;41357;52.806;18.268;2023-08-21T09:52:11;2.40;;;1.77;;
55497;SDS011;41357;52.806;18.268;2023-08-21T09:54:38;3.22;;;1.92;;
55497;SDS011;41357;52.806;18.268;2023-08-21T09:57:04;2.40;;;1.55;;
55497;SDS011;41357;52.806;18.268;2023-08-21T09:59:31;4.22;;;1.98;;
55497;SDS011;41357;52.806;18.268;2023-08-21T10:02:00;4.47;;;1.67;;
55497;SDS011;41357;52.806;18.268;2023-08-21T10:04:30;3.78;;;1.73;;
55497;SDS011;41357;52.806;18.268;2023-08-21T10:06:57;4.65;;;2.22;;
55497;SDS011;41357;52.806;18.268;2023-08-21T10:09:24;4.65;;;1.85;;
55497;SDS011;41357;52.806;18.268;2023-08-21T10:11:52;3.90;;;1.75;;
55497;SDS011;41357;52.806;18.268;2023-08-21T10:14:19;2.72;;;1.50;;
55497;SDS011;41357;52.806;18.268;2023-08-21T10:16:46;6.30;;;1.90;;
55497;SDS011;41357;52.806;18.268;2023-08-21T10:19:14;5.47;;;2.58;;
55497;SDS011;41357;52.806;18.268;2023-08-21T10:21:40;3.65;;;1.58;;
55497;SDS011;41357;52.806;18.268;2023-08-21T10:24:06;4.63;;;1.92;;
55497;SDS011;41357;52.806;18.268;2023-08-21T10:26:34;5.30;;;1.60;;
55497;SDS011;41357;52.806;18.268;2023-08-21T10:29:03;3.00;;;1.88;;
55497;SDS011;41357;52.806;18.268;2023-08-21T10:31:33;3.47;;;1.63;;
55497;SDS011;41357;52.806;18.268;2023-08-21T10:34:04;2.40;;;1.40;;
55497;SDS011;41357;52.806;18.268;2023-08-21T10:39:03;3.95;;;1.60;;
55497;SDS011;41357;52.806;18.268;2023-08-21T10:41:30;7.35;;;1.73;;
55497;SDS011;41357;52.806;18.268;2023-08-21T10:43:56;3.13;;;2.05;;
55497;SDS011;41357;52.806;18.268;2023-08-21T10:46:22;3.33;;;1.60;;
55497;SDS011;41357;52.806;18.268;2023-08-21T10:48:48;1.92;;;1.33;;
55497;SDS011;41357;52.806;18.268;2023-08-21T10:51:14;6.25;;;1.58;;
55497;SDS011;41357;52.806;18.268;2023-08-21T10:53:42;6.72;;;1.40;;
55497;SDS011;41357;52.806;18.268;2023-08-21T10:56:08;2.47;;;1.40;;
55497;SDS011;41357;52.806;18.268;2023-08-21T10:58:47;5.72;;;1.50;;
55497;SDS011;41357;52.806;18.268;2023-08-21T11:01:16;3.22;;;1.33;;
55497;SDS011;41357;52.806;18.268;2023-08-21T11:03:51;3.35;;;1.30;;
55497;SDS011;41357;52.806;18.268;2023-08-21T11:06:18;2.97;;;1.80;;
55497;SDS011;41357;52.806;18.268;2023-08-21T11:08:45;3.40;;;1.30;;
55497;SDS011;41357;52.806;18.268;2023-08-21T11:11:12;3.92;;;1.40;;
55497;SDS011;41357;52.806;18.268;2023-08-21T11:13:38;4.13;;;1.50;;
55497;SDS011;41357;52.806;18.268;2023-08-21T11:16:04;5.22;;;1.50;;
55497;SDS011;41357;52.806;18.268;2023-08-21T11:18:31;2.42;;;1.55;;
55497;SDS011;41357;52.806;18.268;2023-08-21T11:21:11;3.22;;;1.20;;
55497;SDS011;41357;52.806;18.268;2023-08-21T11:23:41;5.18;;;1.45;;
55497;SDS011;41357;52.806;18.268;2023-08-21T11:26:11;2.92;;;1.33;;
55497;SDS011;41357;52.806;18.268;2023-08-21T11:28:37;2.03;;;1.33;;
55497;SDS011;41357;52.806;18.268;2023-08-21T11:31:04;5.47;;;1.25;;
55497;SDS011;41357;52.806;18.268;2023-08-21T11:33:30;3.10;;;1.35;;
55497;SDS011;41357;52.806;18.268;2023-08-21T11:35:57;4.63;;;1.50;;
55497;SDS011;41357;52.806;18.268;2023-08-21T11:38:24;4.47;;;1.30;;
55497;SDS011;41357;52.806;18.268;2023-08-21T11:40:51;2.78;;;1.52;;
55497;SDS011;41357;52.806;18.268;2023-08-21T11:43:17;3.05;;;1.50;;
55497;SDS011;41357;52.806;18.268;2023-08-21T11:45:45;2.58;;;1.10;;
55497;SDS011;41357;52.806;18.268;2023-08-21T11:48:11;3.53;;;1.20;;
55497;SDS011;41357;52.806;18.268;2023-08-21T11:50:38;3.30;;;2.00;;
55497;SDS011;41357;52.806;18.268;2023-08-21T11:53:04;2.00;;;1.40;;
55497;SDS011;41357;52.806;18.268;2023-08-21T11:55:34;3.65;;;1.50;;
55497;SDS011;41357;52.806;18.268;2023-08-21T11:58:01;3.20;;;1.63;;
55497;SDS011;41357;52.806;18.268;2023-08-21T12:00:29;4.88;;;1.80;;
55497;SDS011;41357;52.806;18.268;2023-08-21T12:02:56;3.45;;;1.52;;
55497;SDS011;41357;52.806;18.268;2023-08-21T12:05:23;3.15;;;1.35;;
55497;SDS011;41357;52.806;18.268;2023-08-21T12:07:49;2.17;;;1.50;;
55497;SDS011;41357;52.806;18.268;2023-08-21T12:10:49;3.97;;;1.50;;
55497;SDS011;41357;52.806;18.268;2023-08-21T12:13:07;1.80;;;1.35;;
55497;SDS011;41357;52.806;18.268;2023-08-21T12:15:34;4.20;;;1.20;;
55497;SDS011;41357;52.806;18.268;2023-08-21T12:18:00;4.57;;;1.33;;
55497;SDS011;41357;52.806;18.268;2023-08-21T12:20:26;4.35;;;1.35;;
55497;SDS011;41357;52.806;18.268;2023-08-21T12:22:52;4.63;;;1.73;;
55497;SDS011;41357;52.806;18.268;2023-08-21T12:25:18;4.25;;;1.38;;
55497;SDS011;41357;52.806;18.268;2023-08-21T12:27:44;4.03;;;1.40;;
55497;SDS011;41357;52.806;18.268;2023-08-21T12:30:10;8.43;;;1.80;;
55497;SDS011;41357;52.806;18.268;2023-08-21T12:32:37;5.13;;;1.65;;
55497;SDS011;41357;52.806;18.268;2023-08-21T12:35:05;7.93;;;1.50;;
55497;SDS011;41357;52.806;18.268;2023-08-21T12:37:32;5.28;;;1.70;;
55497;SDS011;41357;52.806;18.268;2023-08-21T12:39:58;3.20;;;1.27;;
55497;SDS011;41357;52.806;18.268;2023-08-21T12:42:24;2.28;;;1.20;;
55497;SDS011;41357;52.806;18.268;2023-08-21T12:44:50;5.55;;;1.50;;
55497;SDS011;41357;52.806;18.268;2023-08-21T12:47:16;2.42;;;1.42;;
55497;SDS011;41357;52.806;18.268;2023-08-21T12:49:42;5.90;;;1.45;;
55497;SDS011;41357;52.806;18.268;2023-08-21T12:52:09;3.15;;;1.27;;
55497;SDS011;41357;52.806;18.268;2023-08-21T12:54:37;3.95;;;1.30;;
55497;SDS011;41357;52.806;18.268;2023-08-21T12:57:04;3.90;;;1.52;;
55497;SDS011;41357;52.806;18.268;2023-08-21T12:59:31;2.70;;;1.20;;
55497;SDS011;41357;52.806;18.268;2023-08-21T13:01:58;3.42;;;1.50;;
55497;SDS011;41357;52.806;18.268;2023-08-21T13:04:28;2.50;;;1.50;;
55497;SDS011;41357;52.806;18.268;2023-08-21T13:06:55;3.55;;;1.48;;
55497;SDS011;41357;52.806;18.268;2023-08-21T13:09:21;1.75;;;1.35;;
55497;SDS011;41357;52.806;18.268;2023-08-21T13:11:50;3.80;;;1.40;;
55497;SDS011;41357;52.806;18.268;2023-08-21T13:14:16;4.32;;;1.15;;
55497;SDS011;41357;52.806;18.268;2023-08-21T13:16:42;8.50;;;1.40;;
55497;SDS011;41357;52.806;18.268;2023-08-21T13:19:08;3.38;;;1.65;;
55497;SDS011;41357;52.806;18.268;2023-08-21T13:21:34;2.05;;;1.10;;
55497;SDS011;41357;52.806;18.268;2023-08-21T13:24:00;7.28;;;1.40;;
55497;SDS011;41357;52.806;18.268;2023-08-21T13:26:26;6.85;;;1.50;;
55497;SDS011;41357;52.806;18.268;2023-08-21T13:28:54;1.98;;;1.27;;
55497;SDS011;41357;52.806;18.268;2023-08-21T13:31:20;4.25;;;1.25;;
55497;SDS011;41357;52.806;18.268;2023-08-21T13:33:47;1.85;;;1.40;;
55497;SDS011;41357;52.806;18.268;2023-08-21T13:36:14;2.30;;;1.10;;
55497;SDS011;41357;52.806;18.268;2023-08-21T13:38:41;3.85;;;1.83;;
55497;SDS011;41357;52.806;18.268;2023-08-21T13:41:07;2.83;;;1.10;;
55497;SDS011;41357;52.806;18.268;2023-08-21T13:43:34;5.45;;;1.50;;
55497;SDS011;41357;52.806;18.268;2023-08-21T13:46:01;6.30;;;1.40;;
55497;SDS011;41357;52.806;18.268;2023-08-21T13:48:30;4.17;;;1.40;;
55497;SDS011;41357;52.806;18.268;2023-08-21T13:50:56;2.45;;;1.30;;
55497;SDS011;41357;52.806;18.268;2023-08-21T13:53:22;3.30;;;1.25;;
55497;SDS011;41357;52.806;18.268;2023-08-21T13:55:52;3.00;;;1.33;;
55497;SDS011;41357;52.806;18.268;2023-08-21T13:58:18;3.10;;;1.50;;
55497;SDS011;41357;52.806;18.268;2023-08-21T14:00:44;3.60;;;1.40;;
55497;SDS011;41357;52.806;18.268;2023-08-21T14:03:10;4.97;;;1.20;;
55497;SDS011;41357;52.806;18.268;2023-08-21T14:05:36;5.13;;;1.30;;
55497;SDS011;41357;52.806;18.268;2023-08-21T14:08:03;4.50;;;1.60;;
55497;SDS011;41357;52.806;18.268;2023-08-21T14:10:29;3.90;;;1.50;;
55497;SDS011;41357;52.806;18.268;2023-08-21T14:12:55;4.07;;;1.52;;
55497;SDS011;41357;52.806;18.268;2023-08-21T14:15:24;4.72;;;1.60;;
55497;SDS011;41357;52.806;18.268;2023-08-21T14:17:50;2.97;;;1.55;;
55497;SDS011;41357;52.806;18.268;2023-08-21T14:20:17;2.42;;;1.35;;
55497;SDS011;41357;52.806;18.268;2023-08-21T14:22:43;4.68;;;1.73;;
55497;SDS011;41357;52.806;18.268;2023-08-21T14:25:09;5.20;;;1.60;;
55497;SDS011;41357;52.806;18.268;2023-08-21T14:27:35;3.38;;;1.60;;
55497;SDS011;41357;52.806;18.268;2023-08-21T14:30:01;3.83;;;1.63;;
55497;SDS011;41357;52.806;18.268;2023-08-21T14:32:28;3.38;;;1.77;;
55497;SDS011;41357;52.806;18.268;2023-08-21T14:34:54;13.43;;;2.15;;